sensor_id;sensor_type;location;lat;lon;timestamp;P1;durP1;ratioP1;P2;durP2;ratioP2
43008;SDS011;28634;45.454;11.106;2022-08-01T00:01:33;3.38;;;2.10;;
43008;SDS011;28634;45.454;11.106;2022-08-01T00:04:01;4.03;;;2.15;;
43008;SDS011;28634;45.454;11.106;2022-08-01T00:06:29;3.13;;;2.28;;
43008;SDS011;28634;45.454;11.106;2022-08-01T00:08:56;4.57;;;2.30;;
43008;SDS011;28634;45.454;11.106;2022-08-01T00:11:25;4.15;;;2.33;;
43008;SDS011;28634;45.454;11.106;2022-08-01T00:13:52;3.08;;;2.13;;
43008;SDS011;28634;45.454;11.106;2022-08-01T00:16:22;3.72;;;2.10;;
43008;SDS011;28634;45.454;11.106;2022-08-01T00:18:50;4.72;;;2.50;;
43008;SDS011;28634;45.454;11.106;2022-08-01T00:21:18;3.80;;;2.38;;
43008;SDS011;28634;45.454;11.106;2022-08-01T00:23:47;4.20;;;2.33;;
43008;SDS011;28634;45.454;11.106;2022-08-01T00:26:14;3.22;;;2.00;;
43008;SDS011;28634;45.454;11.106;2022-08-01T00:28:42;2.85;;;2.20;;
43008;SDS011;28634;45.454;11.106;2022-08-01T00:31:13;3.03;;;1.90;;
43008;SDS011;28634;45.454;11.106;2022-08-01T00:33:40;3.97;;;2.22;;
43008;SDS011;28634;45.454;11.106;2022-08-01T00:36:07;3.08;;;2.10;;
43008;SDS011;28634;45.454;11.106;2022-08-01T00:38:35;2.88;;;2.20;;
43008;SDS011;28634;45.454;11.106;2022-08-01T00:41:02;3.38;;;2.20;;
43008;SDS011;28634;45.454;11.106;2022-08-01T00:43:29;3.88;;;2.53;;
43008;SDS011;28634;45.454;11.106;2022-08-01T00:45:58;2.92;;;2.03;;
43008;SDS011;28634;45.454;11.106;2022-08-01T00:48:25;4.25;;;2.28;;
43008;SDS011;28634;45.454;11.106;2022-08-01T00:50:52;3.47;;;2.30;;
43008;SDS011;28634;45.454;11.106;2022-08-01T00:53:19;3.25;;;2.20;;
43008;SDS011;28634;45.454;11.106;2022-08-01T00:55:51;3.63;;;2.40;;
43008;SDS011;28634;45.454;11.106;2022-08-01T00:58:18;3.28;;;2.00;;
43008;SDS011;28634;45.454;11.106;2022-08-01T01:00:49;5.97;;;2.28;;
43008;SDS011;28634;45.454;11.106;2022-08-01T01:03:22;4.50;;;2.28;;
43008;SDS011;28634;45.454;11.106;2022-08-01T01:06:14;3.75;;;2.47;;
43008;SDS011;28634;45.454;11.106;2022-08-01T01:08:46;4.13;;;2.53;;
43008;SDS011;28634;45.454;11.106;2022-08-01T01:11:31;3.17;;;2.30;;
43008;SDS011;28634;45.454;11.106;2022-08-01T01:14:09;3.78;;;2.00;;
43008;SDS011;28634;45.454;11.106;2022-08-01T01:16:40;3.08;;;2.00;;
43008;SDS011;28634;45.454;11.106;2022-08-01T01:19:10;4.85;;;2.33;;
43008;SDS011;28634;45.454;11.106;2022-08-01T01:21:53;2.95;;;2.28;;
43008;SDS011;28634;45.454;11.106;2022-08-01T01:24:45;6.82;;;2.65;;
43008;SDS011;28634;45.454;11.106;2022-08-01T01:27:45;3.70;;;2.20;;
43008;SDS011;28634;45.454;11.106;2022-08-01T01:30:18;4.78;;;2.20;;
43008;SDS011;28634;45.454;11.106;2022-08-01T01:32:49;3.03;;;2.15;;
43008;SDS011;28634;45.454;11.106;2022-08-01T01:35:21;3.97;;;2.58;;
43008;SDS011;28634;45.454;11.106;2022-08-01T01:40:41;5.03;;;2.20;;
43008;SDS011;28634;45.454;11.106;2022-08-01T01:43:11;5.10;;;2.45;;
43008;SDS011;28634;45.454;11.106;2022-08-01T01:45:41;3.30;;;2.17;;
43008;SDS011;28634;45.454;11.106;2022-08-01T01:48:14;4.00;;;2.35;;
43008;SDS011;28634;45.454;11.106;2022-08-01T01:50:48;2.80;;;2.20;;
43008;SDS011;28634;45.454;11.106;2022-08-01T01:53:18;3.85;;;2.20;;
43008;SDS011;28634;45.454;11.106;2022-08-01T01:55:48;3.67;;;2.00;;
43008;SDS011;28634;45.454;11.106;2022-08-01T01:58:21;2.90;;;2.13;;
43008;SDS011;28634;45.454;11.106;2022-08-01T02:00:52;4.30;;;2.30;;
43008;SDS011;28634;45.454;11.106;2022-08-01T02:03:29;2.60;;;2.08;;
43008;SDS011;28634;45.454;11.106;2022-08-01T02:05:58;4.10;;;2.50;;
43008;SDS011;28634;45.454;11.106;2022-08-01T02:08:27;3.15;;;2.30;;
43008;SDS011;28634;45.454;11.106;2022-08-01T02:10:58;3.58;;;2.28;;
43008;SDS011;28634;45.454;11.106;2022-08-01T02:16:26;3.30;;;2.20;;
43008;SDS011;28634;45.454;11.106;2022-08-01T02:19:08;3.60;;;2.40;;
43008;SDS011;28634;45.454;11.106;2022-08-01T02:21:43;3.25;;;2.33;;
43008;SDS011;28634;45.454;11.106;2022-08-01T02:24:31;5.18;;;2.28;;
43008;SDS011;28634;45.454;11.106;2022-08-01T02:27:06;4.75;;;2.72;;
43008;SDS011;28634;45.454;11.106;2022-08-01T02:29:38;4.53;;;2.30;;
43008;SDS011;28634;45.454;11.106;2022-08-01T02:32:12;3.35;;;2.40;;
43008;SDS011;28634;45.454;11.106;2022-08-01T02:34:46;2.78;;;2.10;;
43008;SDS011;28634;45.454;11.106;2022-08-01T02:37:16;4.97;;;2.30;;
43008;SDS011;28634;45.454;11.106;2022-08-01T02:39:46;4.35;;;2.30;;
43008;SDS011;28634;45.454;11.106;2022-08-01T02:42:17;5.38;;;2.25;;
43008;SDS011;28634;45.454;11.106;2022-08-01T02:44:46;3.53;;;2.33;;
43008;SDS011;28634;45.454;11.106;2022-08-01T02:47:14;3.65;;;2.13;;
43008;SDS011;28634;45.454;11.106;2022-08-01T02:49:46;3.45;;;2.30;;
43008;SDS011;28634;45.454;11.106;2022-08-01T02:52:20;4.68;;;2.33;;
43008;SDS011;28634;45.454;11.106;2022-08-01T02:54:53;3.00;;;2.00;;
43008;SDS011;28634;45.454;11.106;2022-08-01T02:57:29;3.15;;;2.28;;
43008;SDS011;28634;45.454;11.106;2022-08-01T03:00:17;2.92;;;2.33;;
43008;SDS011;28634;45.454;11.106;2022-08-01T03:02:51;5.63;;;2.47;;
43008;SDS011;28634;45.454;11.106;2022-08-01T03:05:22;4.43;;;2.20;;
43008;SDS011;28634;45.454;11.106;2022-08-01T03:07:58;4.75;;;2.10;;
43008;SDS011;28634;45.454;11.106;2022-08-01T03:10:38;3.13;;;2.33;;
43008;SDS011;28634;45.454;11.106;2022-08-01T03:13:07;4.07;;;2.63;;
43008;SDS011;28634;45.454;11.106;2022-08-01T03:15:37;3.15;;;2.05;;
43008;SDS011;28634;45.454;11.106;2022-08-01T03:18:07;5.30;;;2.60;;
43008;SDS011;28634;45.454;11.106;2022-08-01T03:20:38;3.58;;;2.53;;
43008;SDS011;28634;45.454;11.106;2022-08-01T03:23:07;4.10;;;2.30;;
43008;SDS011;28634;45.454;11.106;2022-08-01T03:25:39;3.20;;;2.40;;
43008;SDS011;28634;45.454;11.106;2022-08-01T03:28:08;3.65;;;2.13;;
43008;SDS011;28634;45.454;11.106;2022-08-01T03:30:39;3.50;;;2.47;;
43008;SDS011;28634;45.454;11.106;2022-08-01T03:33:14;3.33;;;2.50;;
43008;SDS011;28634;45.454;11.106;2022-08-01T03:35:46;3.75;;;2.28;;
43008;SDS011;28634;45.454;11.106;2022-08-01T03:38:18;4.13;;;2.35;;
43008;SDS011;28634;45.454;11.106;2022-08-01T03:40:49;5.30;;;2.40;;
43008;SDS011;28634;45.454;11.106;2022-08-01T03:43:41;4.68;;;2.50;;
43008;SDS011;28634;45.454;11.106;2022-08-01T03:46:14;3.22;;;2.33;;
43008;SDS011;28634;45.454;11.106;2022-08-01T03:48:50;4.35;;;2.40;;
43008;SDS011;28634;45.454;11.106;2022-08-01T03:51:21;5.10;;;2.40;;
43008;SDS011;28634;45.454;11.106;2022-08-01T03:53:49;5.13;;;2.38;;
43008;SDS011;28634;45.454;11.106;2022-08-01T03:56:18;3.75;;;2.40;;
43008;SDS011;28634;45.454;11.106;2022-08-01T03:58:51;4.30;;;2.25;;
43008;SDS011;28634;45.454;11.106;2022-08-01T04:01:22;4.22;;;2.28;;
43008;SDS011;28634;45.454;11.106;2022-08-01T04:03:50;6.93;;;2.63;;
43008;SDS011;28634;45.454;11.106;2022-08-01T04:06:17;6.97;;;3.00;;
43008;SDS011;28634;45.454;11.106;2022-08-01T04:08:44;4.72;;;2.75;;
43008;SDS011;28634;45.454;11.106;2022-08-01T04:11:25;4.28;;;2.60;;
43008;SDS011;28634;45.454;11.106;2022-08-01T04:13:53;6.25;;;2.92;;
43008;SDS011;28634;45.454;11.106;2022-08-01T04:16:22;7.32;;;3.03;;
43008;SDS011;28634;45.454;11.106;2022-08-01T04:18:50;4.43;;;3.08;;
43008;SDS011;28634;45.454;11.106;2022-08-01T04:21:21;7.25;;;3.08;;
43008;SDS011;28634;45.454;11.106;2022-08-01T04:23:51;3.80;;;2.95;;
43008;SDS011;28634;45.454;11.106;2022-08-01T04:26:19;5.68;;;3.08;;
43008;SDS011;28634;45.454;11.106;2022-08-01T04:28:56;4.20;;;3.17;;
43008;SDS011;28634;45.454;11.106;2022-08-01T04:31:31;5.57;;;3.17;;
43008;SDS011;28634;45.454;11.106;2022-08-01T04:34:03;4.75;;;3.00;;
43008;SDS011;28634;45.454;11.106;2022-08-01T04:36:36;6.55;;;3.30;;
43008;SDS011;28634;45.454;11.106;2022-08-01T04:39:04;6.13;;;3.70;;
43008;SDS011;28634;45.454;11.106;2022-08-01T04:41:32;5.75;;;3.35;;
43008;SDS011;28634;45.454;11.106;2022-08-01T04:44:02;6.72;;;3.20;;
43008;SDS011;28634;45.454;11.106;2022-08-01T04:46:30;7.78;;;3.15;;
43008;SDS011;28634;45.454;11.106;2022-08-01T04:49:01;7.45;;;2.97;;
43008;SDS011;28634;45.454;11.106;2022-08-01T04:51:31;7.35;;;3.03;;
43008;SDS011;28634;45.454;11.106;2022-08-01T04:53:58;4.05;;;2.85;;
43008;SDS011;28634;45.454;11.106;2022-08-01T04:56:29;6.70;;;3.03;;
43008;SDS011;28634;45.454;11.106;2022-08-01T04:58:56;78.18;;;15.95;;
43008;SDS011;28634;45.454;11.106;2022-08-01T05:01:52;50.22;;;11.25;;
43008;SDS011;28634;45.454;11.106;2022-08-01T05:04:19;38.13;;;8.27;;
43008;SDS011;28634;45.454;11.106;2022-08-01T05:06:49;17.83;;;5.13;;
43008;SDS011;28634;45.454;11.106;2022-08-01T05:09:16;27.75;;;7.03;;
43008;SDS011;28634;45.454;11.106;2022-08-01T05:11:45;38.88;;;8.52;;
43008;SDS011;28634;45.454;11.106;2022-08-01T05:14:12;15.48;;;4.80;;
43008;SDS011;28634;45.454;11.106;2022-08-01T05:16:40;16.35;;;4.80;;
43008;SDS011;28634;45.454;11.106;2022-08-01T05:19:12;10.10;;;3.70;;
43008;SDS011;28634;45.454;11.106;2022-08-01T05:21:39;5.22;;;3.35;;
43008;SDS011;28634;45.454;11.106;2022-08-01T05:24:07;6.20;;;2.95;;
43008;SDS011;28634;45.454;11.106;2022-08-01T05:26:35;5.18;;;2.95;;
43008;SDS011;28634;45.454;11.106;2022-08-01T05:29:03;5.65;;;3.50;;
43008;SDS011;28634;45.454;11.106;2022-08-01T05:31:30;10.93;;;4.07;;
43008;SDS011;28634;45.454;11.106;2022-08-01T05:34:01;14.15;;;4.15;;
43008;SDS011;28634;45.454;11.106;2022-08-01T05:36:40;6.75;;;3.90;;
43008;SDS011;28634;45.454;11.106;2022-08-01T05:39:07;5.75;;;3.72;;
43008;SDS011;28634;45.454;11.106;2022-08-01T05:41:35;6.97;;;3.65;;
43008;SDS011;28634;45.454;11.106;2022-08-01T05:44:05;8.68;;;3.40;;
43008;SDS011;28634;45.454;11.106;2022-08-01T05:46:33;6.35;;;3.28;;
43008;SDS011;28634;45.454;11.106;2022-08-01T05:49:04;7.63;;;3.47;;
43008;SDS011;28634;45.454;11.106;2022-08-01T05:51:31;5.40;;;2.88;;
43008;SDS011;28634;45.454;11.106;2022-08-01T05:54:03;7.10;;;3.22;;
43008;SDS011;28634;45.454;11.106;2022-08-01T05:56:36;5.72;;;3.35;;
43008;SDS011;28634;45.454;11.106;2022-08-01T05:59:05;5.78;;;3.35;;
43008;SDS011;28634;45.454;11.106;2022-08-01T06:01:36;7.13;;;3.63;;
43008;SDS011;28634;45.454;11.106;2022-08-01T06:04:03;5.15;;;3.38;;
43008;SDS011;28634;45.454;11.106;2022-08-01T06:06:30;7.70;;;3.30;;
43008;SDS011;28634;45.454;11.106;2022-08-01T06:08:59;8.23;;;4.13;;
43008;SDS011;28634;45.454;11.106;2022-08-01T06:11:26;12.00;;;4.60;;
43008;SDS011;28634;45.454;11.106;2022-08-01T06:13:53;14.82;;;4.00;;
43008;SDS011;28634;45.454;11.106;2022-08-01T06:16:20;11.93;;;4.40;;
43008;SDS011;28634;45.454;11.106;2022-08-01T06:18:50;7.47;;;3.38;;
43008;SDS011;28634;45.454;11.106;2022-08-01T06:21:22;8.93;;;4.60;;
43008;SDS011;28634;45.454;11.106;2022-08-01T06:23:49;7.90;;;3.97;;
43008;SDS011;28634;45.454;11.106;2022-08-01T06:26:19;6.85;;;3.72;;
43008;SDS011;28634;45.454;11.106;2022-08-01T06:28:46;7.32;;;4.05;;
43008;SDS011;28634;45.454;11.106;2022-08-01T06:31:13;6.53;;;3.88;;
43008;SDS011;28634;45.454;11.106;2022-08-01T06:33:42;6.63;;;3.95;;
43008;SDS011;28634;45.454;11.106;2022-08-01T06:36:09;10.05;;;5.07;;
43008;SDS011;28634;45.454;11.106;2022-08-01T06:39:24;11.27;;;4.00;;
43008;SDS011;28634;45.454;11.106;2022-08-01T06:41:56;8.75;;;3.88;;
43008;SDS011;28634;45.454;11.106;2022-08-01T06:44:34;8.13;;;3.55;;
43008;SDS011;28634;45.454;11.106;2022-08-01T06:47:02;5.10;;;3.78;;
43008;SDS011;28634;45.454;11.106;2022-08-01T06:49:33;6.82;;;3.30;;
43008;SDS011;28634;45.454;11.106;2022-08-01T06:52:08;7.50;;;3.80;;
43008;SDS011;28634;45.454;11.106;2022-08-01T06:54:36;8.35;;;3.67;;
43008;SDS011;28634;45.454;11.106;2022-08-01T06:57:05;11.40;;;4.28;;
43008;SDS011;28634;45.454;11.106;2022-08-01T06:59:33;12.15;;;4.30;;
43008;SDS011;28634;45.454;11.106;2022-08-01T07:02:04;22.08;;;5.70;;
43008;SDS011;28634;45.454;11.106;2022-08-01T07:04:36;15.88;;;4.57;;
43008;SDS011;28634;45.454;11.106;2022-08-01T07:07:23;8.60;;;4.53;;
43008;SDS011;28634;45.454;11.106;2022-08-01T07:09:53;8.20;;;3.97;;
43008;SDS011;28634;45.454;11.106;2022-08-01T07:12:23;7.93;;;4.32;;
43008;SDS011;28634;45.454;11.106;2022-08-01T07:14:50;8.50;;;4.18;;
43008;SDS011;28634;45.454;11.106;2022-08-01T07:17:18;8.32;;;3.90;;
43008;SDS011;28634;45.454;11.106;2022-08-01T07:19:50;7.78;;;3.22;;
43008;SDS011;28634;45.454;11.106;2022-08-01T08:24:30;6.22;;;3.47;;
43008;SDS011;28634;45.454;11.106;2022-08-01T08:26:58;5.32;;;3.08;;
43008;SDS011;28634;45.454;11.106;2022-08-01T08:29:26;9.13;;;3.50;;
43008;SDS011;28634;45.454;11.106;2022-08-01T08:31:56;5.13;;;3.40;;
43008;SDS011;28634;45.454;11.106;2022-08-01T08:34:32;5.63;;;3.38;;
43008;SDS011;28634;45.454;11.106;2022-08-01T08:37:05;8.25;;;3.58;;
43008;SDS011;28634;45.454;11.106;2022-08-01T08:39:36;9.15;;;3.80;;
43008;SDS011;28634;45.454;11.106;2022-08-01T08:42:08;8.98;;;3.00;;
43008;SDS011;28634;45.454;11.106;2022-08-01T08:44:42;5.55;;;2.70;;
43008;SDS011;28634;45.454;11.106;2022-08-01T08:47:10;6.13;;;3.25;;
43008;SDS011;28634;45.454;11.106;2022-08-01T08:49:49;5.57;;;3.13;;
43008;SDS011;28634;45.454;11.106;2022-08-01T08:52:38;5.60;;;3.13;;
43008;SDS011;28634;45.454;11.106;2022-08-01T08:55:48;6.50;;;3.13;;
43008;SDS011;28634;45.454;11.106;2022-08-01T08:58:38;5.22;;;2.60;;
43008;SDS011;28634;45.454;11.106;2022-08-01T09:01:43;5.93;;;2.80;;
43008;SDS011;28634;45.454;11.106;2022-08-01T09:04:14;4.38;;;2.80;;
43008;SDS011;28634;45.454;11.106;2022-08-01T09:07:03;6.70;;;3.10;;
43008;SDS011;28634;45.454;11.106;2022-08-01T09:14:16;11.25;;;3.28;;
43008;SDS011;28634;45.454;11.106;2022-08-01T09:17:50;9.32;;;3.40;;
43008;SDS011;28634;45.454;11.106;2022-08-01T09:20:38;5.75;;;2.95;;
43008;SDS011;28634;45.454;11.106;2022-08-01T09:56:41;9.63;;;3.90;;
43008;SDS011;28634;45.454;11.106;2022-08-01T09:59:20;5.65;;;3.15;;
43008;SDS011;28634;45.454;11.106;2022-08-01T10:02:30;4.97;;;3.00;;
43008;SDS011;28634;45.454;11.106;2022-08-01T10:05:11;6.43;;;3.00;;
43008;SDS011;28634;45.454;11.106;2022-08-01T10:08:25;5.25;;;3.80;;
43008;SDS011;28634;45.454;11.106;2022-08-01T10:11:11;7.63;;;3.55;;
43008;SDS011;28634;45.454;11.106;2022-08-01T10:14:08;5.28;;;3.05;;
43008;SDS011;28634;45.454;11.106;2022-08-01T10:17:35;5.10;;;3.22;;
43008;SDS011;28634;45.454;11.106;2022-08-01T10:20:18;6.95;;;2.95;;
43008;SDS011;28634;45.454;11.106;2022-08-01T10:22:59;5.65;;;2.90;;
43008;SDS011;28634;45.454;11.106;2022-08-01T10:25:35;5.32;;;3.55;;
43008;SDS011;28634;45.454;11.106;2022-08-01T10:28:15;5.32;;;3.03;;
43008;SDS011;28634;45.454;11.106;2022-08-01T10:30:52;7.72;;;2.90;;
43008;SDS011;28634;45.454;11.106;2022-08-01T10:33:24;5.97;;;3.10;;
43008;SDS011;28634;45.454;11.106;2022-08-01T10:36:23;3.60;;;2.90;;
43008;SDS011;28634;45.454;11.106;2022-08-01T10:38:52;5.75;;;3.30;;
43008;SDS011;28634;45.454;11.106;2022-08-01T10:41:21;4.70;;;2.70;;
43008;SDS011;28634;45.454;11.106;2022-08-01T10:43:52;4.97;;;3.35;;
43008;SDS011;28634;45.454;11.106;2022-08-01T10:46:38;5.88;;;2.85;;
43008;SDS011;28634;45.454;11.106;2022-08-01T10:49:13;5.07;;;2.72;;
43008;SDS011;28634;45.454;11.106;2022-08-01T10:51:46;8.10;;;3.33;;
43008;SDS011;28634;45.454;11.106;2022-08-01T10:54:22;5.63;;;2.90;;
43008;SDS011;28634;45.454;11.106;2022-08-01T10:56:55;6.47;;;2.80;;
43008;SDS011;28634;45.454;11.106;2022-08-01T10:59:50;5.18;;;2.55;;
43008;SDS011;28634;45.454;11.106;2022-08-01T11:05:19;3.85;;;2.55;;
43008;SDS011;28634;45.454;11.106;2022-08-01T11:08:01;4.20;;;3.20;;
43008;SDS011;28634;45.454;11.106;2022-08-01T11:10:43;6.07;;;3.00;;
43008;SDS011;28634;45.454;11.106;2022-08-01T11:13:12;5.50;;;3.30;;
43008;SDS011;28634;45.454;11.106;2022-08-01T11:16:25;4.45;;;2.97;;
43008;SDS011;28634;45.454;11.106;2022-08-01T11:18:54;4.97;;;3.08;;
43008;SDS011;28634;45.454;11.106;2022-08-01T11:21:56;6.45;;;3.00;;
43008;SDS011;28634;45.454;11.106;2022-08-01T11:27:26;4.88;;;3.10;;
43008;SDS011;28634;45.454;11.106;2022-08-01T11:36:20;6.57;;;3.22;;
43008;SDS011;28634;45.454;11.106;2022-08-01T11:41:41;8.52;;;3.22;;
43008;SDS011;28634;45.454;11.106;2022-08-01T11:44:17;6.25;;;3.20;;
43008;SDS011;28634;45.454;11.106;2022-08-01T11:47:06;5.35;;;3.28;;
43008;SDS011;28634;45.454;11.106;2022-08-01T11:57:20;4.82;;;2.80;;
43008;SDS011;28634;45.454;11.106;2022-08-01T12:00:03;6.40;;;3.20;;
43008;SDS011;28634;45.454;11.106;2022-08-01T12:02:42;9.60;;;3.20;;
43008;SDS011;28634;45.454;11.106;2022-08-01T12:05:15;8.88;;;3.00;;
43008;SDS011;28634;45.454;11.106;2022-08-01T12:07:50;5.13;;;2.90;;
43008;SDS011;28634;45.454;11.106;2022-08-01T12:10:21;4.90;;;2.90;;
43008;SDS011;28634;45.454;11.106;2022-08-01T12:12:55;7.53;;;3.30;;
43008;SDS011;28634;45.454;11.106;2022-08-01T12:15:30;6.10;;;2.80;;
43008;SDS011;28634;45.454;11.106;2022-08-01T12:18:05;6.72;;;2.80;;
43008;SDS011;28634;45.454;11.106;2022-08-01T12:20:37;7.47;;;3.22;;
43008;SDS011;28634;45.454;11.106;2022-08-01T12:23:22;7.22;;;3.08;;
43008;SDS011;28634;45.454;11.106;2022-08-01T12:25:56;6.95;;;3.03;;
43008;SDS011;28634;45.454;11.106;2022-08-01T12:28:26;5.47;;;2.80;;
43008;SDS011;28634;45.454;11.106;2022-08-01T12:30:55;15.38;;;3.50;;
43008;SDS011;28634;45.454;11.106;2022-08-01T12:33:22;5.20;;;2.80;;
43008;SDS011;28634;45.454;11.106;2022-08-01T12:35:49;6.05;;;2.95;;
43008;SDS011;28634;45.454;11.106;2022-08-01T12:38:20;5.00;;;3.03;;
43008;SDS011;28634;45.454;11.106;2022-08-01T12:40:53;6.00;;;3.10;;
43008;SDS011;28634;45.454;11.106;2022-08-01T12:43:22;5.07;;;2.72;;
43008;SDS011;28634;45.454;11.106;2022-08-01T12:45:57;6.45;;;2.60;;
43008;SDS011;28634;45.454;11.106;2022-08-01T12:48:30;4.40;;;2.90;;
43008;SDS011;28634;45.454;11.106;2022-08-01T12:51:00;5.13;;;2.70;;
43008;SDS011;28634;45.454;11.106;2022-08-01T12:53:33;7.30;;;3.20;;
43008;SDS011;28634;45.454;11.106;2022-08-01T12:56:06;7.28;;;2.80;;
43008;SDS011;28634;45.454;11.106;2022-08-01T12:58:39;4.45;;;2.60;;
43008;SDS011;28634;45.454;11.106;2022-08-01T13:01:08;10.48;;;2.85;;
43008;SDS011;28634;45.454;11.106;2022-08-01T13:03:40;5.38;;;2.50;;
43008;SDS011;28634;45.454;11.106;2022-08-01T13:06:11;4.68;;;2.72;;
43008;SDS011;28634;45.454;11.106;2022-08-01T13:08:43;8.40;;;2.75;;
43008;SDS011;28634;45.454;11.106;2022-08-01T13:11:13;4.43;;;2.55;;
43008;SDS011;28634;45.454;11.106;2022-08-01T13:13:51;6.57;;;2.80;;
43008;SDS011;28634;45.454;11.106;2022-08-01T13:16:25;6.22;;;2.60;;
43008;SDS011;28634;45.454;11.106;2022-08-01T13:19:15;5.60;;;2.88;;
43008;SDS011;28634;45.454;11.106;2022-08-01T13:21:56;5.60;;;2.83;;
43008;SDS011;28634;45.454;11.106;2022-08-01T13:24:25;15.43;;;3.78;;
43008;SDS011;28634;45.454;11.106;2022-08-01T13:30:20;3.13;;;2.30;;
43008;SDS011;28634;45.454;11.106;2022-08-01T13:33:40;7.80;;;2.92;;
43008;SDS011;28634;45.454;11.106;2022-08-01T13:36:29;5.78;;;2.67;;
43008;SDS011;28634;45.454;11.106;2022-08-01T13:40:01;4.40;;;2.38;;
43008;SDS011;28634;45.454;11.106;2022-08-01T13:42:41;7.03;;;2.53;;
43008;SDS011;28634;45.454;11.106;2022-08-01T13:52:32;5.05;;;2.40;;
43008;SDS011;28634;45.454;11.106;2022-08-01T14:06:35;4.40;;;2.00;;
43008;SDS011;28634;45.454;11.106;2022-08-01T14:13:11;4.90;;;2.30;;
43008;SDS011;28634;45.454;11.106;2022-08-01T14:15:44;4.00;;;2.22;;
43008;SDS011;28634;45.454;11.106;2022-08-01T14:22:11;4.50;;;2.17;;
43008;SDS011;28634;45.454;11.106;2022-08-01T14:24:41;4.75;;;2.33;;
43008;SDS011;28634;45.454;11.106;2022-08-01T14:27:08;4.07;;;2.00;;
43008;SDS011;28634;45.454;11.106;2022-08-01T14:29:39;5.18;;;2.38;;
43008;SDS011;28634;45.454;11.106;2022-08-01T14:32:26;3.50;;;2.15;;
43008;SDS011;28634;45.454;11.106;2022-08-01T14:34:54;3.67;;;2.58;;
43008;SDS011;28634;45.454;11.106;2022-08-01T14:37:23;3.53;;;2.30;;
43008;SDS011;28634;45.454;11.106;2022-08-01T14:39:55;5.10;;;2.38;;
43008;SDS011;28634;45.454;11.106;2022-08-01T14:42:26;5.22;;;2.33;;
43008;SDS011;28634;45.454;11.106;2022-08-01T14:44:57;3.05;;;2.10;;
43008;SDS011;28634;45.454;11.106;2022-08-01T14:47:24;4.05;;;2.00;;
43008;SDS011;28634;45.454;11.106;2022-08-01T14:49:55;2.70;;;1.77;;
43008;SDS011;28634;45.454;11.106;2022-08-01T14:52:23;6.63;;;2.03;;
43008;SDS011;28634;45.454;11.106;2022-08-01T14:54:51;4.80;;;1.98;;
43008;SDS011;28634;45.454;11.106;2022-08-01T14:57:18;3.20;;;2.15;;
43008;SDS011;28634;45.454;11.106;2022-08-01T14:59:45;3.25;;;2.00;;
43008;SDS011;28634;45.454;11.106;2022-08-01T15:02:13;3.47;;;2.20;;
43008;SDS011;28634;45.454;11.106;2022-08-01T15:04:47;6.15;;;2.35;;
43008;SDS011;28634;45.454;11.106;2022-08-01T15:07:23;4.72;;;2.28;;
43008;SDS011;28634;45.454;11.106;2022-08-01T15:09:53;5.10;;;2.15;;
43008;SDS011;28634;45.454;11.106;2022-08-01T15:12:22;3.72;;;2.38;;
43008;SDS011;28634;45.454;11.106;2022-08-01T15:14:50;4.53;;;2.20;;
43008;SDS011;28634;45.454;11.106;2022-08-01T15:19:53;4.50;;;2.33;;
43008;SDS011;28634;45.454;11.106;2022-08-01T15:22:25;5.07;;;2.20;;
43008;SDS011;28634;45.454;11.106;2022-08-01T15:24:56;4.57;;;2.20;;
43008;SDS011;28634;45.454;11.106;2022-08-01T15:27:24;3.53;;;1.95;;
43008;SDS011;28634;45.454;11.106;2022-08-01T15:29:53;4.53;;;2.33;;
43008;SDS011;28634;45.454;11.106;2022-08-01T15:32:21;4.60;;;2.20;;
43008;SDS011;28634;45.454;11.106;2022-08-01T15:34:49;4.43;;;2.10;;
43008;SDS011;28634;45.454;11.106;2022-08-01T15:37:16;4.63;;;2.10;;
43008;SDS011;28634;45.454;11.106;2022-08-01T15:39:47;3.72;;;1.98;;
43008;SDS011;28634;45.454;11.106;2022-08-01T15:42:21;4.13;;;1.90;;
43008;SDS011;28634;45.454;11.106;2022-08-01T15:44:52;3.40;;;2.00;;
43008;SDS011;28634;45.454;11.106;2022-08-01T15:47:21;3.42;;;2.35;;
43008;SDS011;28634;45.454;11.106;2022-08-01T15:49:50;3.38;;;2.00;;
43008;SDS011;28634;45.454;11.106;2022-08-01T15:52:27;3.72;;;2.20;;
43008;SDS011;28634;45.454;11.106;2022-08-01T15:55:04;5.93;;;2.00;;
43008;SDS011;28634;45.454;11.106;2022-08-01T15:57:34;3.28;;;2.10;;
43008;SDS011;28634;45.454;11.106;2022-08-01T16:00:01;2.78;;;2.00;;
43008;SDS011;28634;45.454;11.106;2022-08-01T16:02:31;4.35;;;2.13;;
43008;SDS011;28634;45.454;11.106;2022-08-01T16:04:59;4.20;;;2.20;;
43008;SDS011;28634;45.454;11.106;2022-08-01T16:07:28;4.88;;;1.90;;
43008;SDS011;28634;45.454;11.106;2022-08-01T16:09:59;3.17;;;2.00;;
43008;SDS011;28634;45.454;11.106;2022-08-01T16:12:31;3.95;;;2.28;;
43008;SDS011;28634;45.454;11.106;2022-08-01T16:15:01;4.50;;;2.00;;
43008;SDS011;28634;45.454;11.106;2022-08-01T16:25:20;5.40;;;2.10;;
43008;SDS011;28634;45.454;11.106;2022-08-01T16:30:45;5.50;;;2.33;;
43008;SDS011;28634;45.454;11.106;2022-08-01T16:33:34;5.18;;;2.22;;
43008;SDS011;28634;45.454;11.106;2022-08-01T16:36:19;3.45;;;2.15;;
43008;SDS011;28634;45.454;11.106;2022-08-01T16:38:49;2.90;;;1.95;;
43008;SDS011;28634;45.454;11.106;2022-08-01T16:41:17;5.50;;;2.28;;
43008;SDS011;28634;45.454;11.106;2022-08-01T16:43:46;3.80;;;2.00;;
43008;SDS011;28634;45.454;11.106;2022-08-01T16:46:22;4.85;;;2.28;;
43008;SDS011;28634;45.454;11.106;2022-08-01T16:49:00;3.78;;;2.00;;
43008;SDS011;28634;45.454;11.106;2022-08-01T16:51:31;4.20;;;2.20;;
43008;SDS011;28634;45.454;11.106;2022-08-01T16:54:13;3.40;;;2.30;;
43008;SDS011;28634;45.454;11.106;2022-08-01T16:57:09;4.30;;;2.10;;
43008;SDS011;28634;45.454;11.106;2022-08-01T17:02:07;4.78;;;2.10;;
43008;SDS011;28634;45.454;11.106;2022-08-01T17:04:36;3.75;;;2.30;;
43008;SDS011;28634;45.454;11.106;2022-08-01T17:07:10;6.55;;;2.00;;
43008;SDS011;28634;45.454;11.106;2022-08-01T17:09:41;3.88;;;2.13;;
43008;SDS011;28634;45.454;11.106;2022-08-01T17:12:17;7.65;;;2.20;;
43008;SDS011;28634;45.454;11.106;2022-08-01T17:14:47;6.07;;;2.20;;
43008;SDS011;28634;45.454;11.106;2022-08-01T17:17:15;4.22;;;2.00;;
43008;SDS011;28634;45.454;11.106;2022-08-01T17:19:49;5.93;;;2.13;;
43008;SDS011;28634;45.454;11.106;2022-08-01T17:22:19;3.05;;;1.80;;
43008;SDS011;28634;45.454;11.106;2022-08-01T17:24:49;4.20;;;1.90;;
43008;SDS011;28634;45.454;11.106;2022-08-01T17:27:20;5.95;;;2.03;;
43008;SDS011;28634;45.454;11.106;2022-08-01T17:29:48;2.90;;;1.90;;
43008;SDS011;28634;45.454;11.106;2022-08-01T17:32:20;2.70;;;2.00;;
43008;SDS011;28634;45.454;11.106;2022-08-01T17:34:51;3.55;;;2.10;;
43008;SDS011;28634;45.454;11.106;2022-08-01T17:37:18;2.70;;;2.03;;
43008;SDS011;28634;45.454;11.106;2022-08-01T17:39:45;4.18;;;2.00;;
43008;SDS011;28634;45.454;11.106;2022-08-01T17:42:21;2.75;;;1.88;;
43008;SDS011;28634;45.454;11.106;2022-08-01T17:45:08;2.67;;;2.10;;
43008;SDS011;28634;45.454;11.106;2022-08-01T17:47:53;2.97;;;2.08;;
43008;SDS011;28634;45.454;11.106;2022-08-01T17:50:23;3.20;;;1.95;;
43008;SDS011;28634;45.454;11.106;2022-08-01T17:52:57;3.50;;;2.10;;
43008;SDS011;28634;45.454;11.106;2022-08-01T17:55:27;2.97;;;2.10;;
43008;SDS011;28634;45.454;11.106;2022-08-01T17:58:17;3.47;;;2.38;;
43008;SDS011;28634;45.454;11.106;2022-08-01T18:01:14;2.75;;;2.13;;
43008;SDS011;28634;45.454;11.106;2022-08-01T18:03:43;2.55;;;1.95;;
43008;SDS011;28634;45.454;11.106;2022-08-01T18:06:12;2.90;;;2.13;;
43008;SDS011;28634;45.454;11.106;2022-08-01T18:08:43;3.72;;;2.05;;